createdAt,value
2018-10-11T00:01:48.703Z,99.90
2018-10-11T00:04:17.270Z,99.90
2018-10-11T00:06:45.833Z,99.90
2018-10-11T00:09:14.483Z,99.90
2018-10-11T00:11:43.073Z,99.90
2018-10-11T00:14:11.642Z,99.90
2018-10-11T00:16:40.803Z,99.90
2018-10-11T00:19:09.485Z,99.90
2018-10-11T00:21:38.553Z,99.90
2018-10-11T00:24:07.462Z,99.90
2018-10-11T00:26:36.100Z,99.90
2018-10-11T00:29:04.625Z,99.90
2018-10-11T00:31:33.211Z,99.90
2018-10-11T00:34:01.944Z,99.90
2018-10-11T00:36:30.499Z,99.90
2018-10-11T00:38:59.243Z,99.90
2018-10-11T00:41:27.777Z,99.90
2018-10-11T00:43:56.727Z,99.90
2018-10-11T00:46:25.640Z,99.90
2018-10-11T00:48:54.215Z,99.90
2018-10-11T00:51:22.699Z,99.90
2018-10-11T00:53:51.288Z,99.90
2018-10-11T00:56:19.947Z,99.90
2018-10-11T00:58:48.492Z,99.90
2018-10-11T01:01:17.037Z,99.90
2018-10-11T01:03:45.739Z,99.90
2018-10-11T01:06:14.236Z,99.90
2018-10-11T01:08:42.721Z,99.90
2018-10-11T01:11:11.436Z,99.90
2018-10-11T01:13:40.519Z,99.90
2018-10-11T01:16:09.134Z,99.90
2018-10-11T01:18:37.795Z,99.90
2018-10-11T01:21:06.922Z,99.90
2018-10-11T01:23:36.160Z,99.90
2018-10-11T01:26:04.783Z,99.90
2018-10-11T01:28:33.416Z,99.90
2018-10-11T01:31:07.089Z,99.90
2018-10-11T01:33:35.667Z,99.90
2018-10-11T01:36:04.422Z,99.90
2018-10-11T01:38:33.145Z,99.90
2018-10-11T01:41:01.700Z,99.90
2018-10-11T01:43:30.208Z,99.90
2018-10-11T01:45:58.787Z,99.90
2018-10-11T01:48:27.448Z,99.90
2018-10-11T01:50:56.005Z,99.90
2018-10-11T01:53:25.444Z,99.90
2018-10-11T01:55:53.984Z,99.90
2018-10-11T01:58:22.630Z,99.90
2018-10-11T02:00:51.117Z,99.90
2018-10-11T02:03:19.698Z,99.90
2018-10-11T02:05:48.211Z,99.90
2018-10-11T02:08:16.725Z,99.90
2018-10-11T02:10:45.459Z,99.90
2018-10-11T02:13:14.120Z,99.90
2018-10-11T02:15:42.617Z,99.90
2018-10-11T02:18:11.200Z,99.90
2018-10-11T02:20:39.764Z,99.90
2018-10-11T02:23:08.460Z,99.90
2018-10-11T02:25:37.192Z,99.90
2018-10-11T02:28:06.003Z,99.90
2018-10-11T02:30:34.738Z,99.90
2018-10-11T02:33:03.254Z,99.90
2018-10-11T02:35:31.784Z,99.90
2018-10-11T02:38:00.324Z,99.90
2018-10-11T02:40:29.043Z,99.90
2018-10-11T02:42:57.681Z,99.90
2018-10-11T02:45:26.248Z,99.90
2018-10-11T02:47:54.745Z,99.90
2018-10-11T02:50:23.262Z,99.90
2018-10-11T02:52:51.852Z,99.90
2018-10-11T02:55:25.800Z,99.90
2018-10-11T02:58:05.569Z,99.90
2018-10-11T03:00:35.308Z,99.90
2018-10-11T03:03:12.938Z,99.90
2018-10-11T03:05:44.068Z,99.90
2018-10-11T03:08:29.315Z,99.90
2018-10-11T03:10:58.308Z,99.90
2018-10-11T03:13:27.205Z,99.90
2018-10-11T03:15:55.786Z,99.90
2018-10-11T03:18:24.339Z,99.90
2018-10-11T03:20:53.019Z,99.90
2018-10-11T03:23:21.510Z,99.90
2018-10-11T03:25:50.067Z,99.90
2018-10-11T03:28:18.665Z,99.90
2018-10-11T03:30:47.163Z,99.90
2018-10-11T03:33:16.073Z,99.90
2018-10-11T03:35:45.164Z,99.90
2018-10-11T03:38:14.256Z,99.90
2018-10-11T03:40:43.132Z,99.90
2018-10-11T03:43:11.715Z,99.90
2018-10-11T03:45:40.272Z,99.90
2018-10-11T03:48:09.138Z,99.90
2018-10-11T03:50:37.685Z,99.90
2018-10-11T03:53:06.420Z,99.90
2018-10-11T03:55:35.301Z,99.90
2018-10-11T03:58:03.807Z,99.90
2018-10-11T04:00:32.358Z,99.90
2018-10-11T04:03:00.909Z,99.90
2018-10-11T04:05:29.589Z,99.90
2018-10-11T04:07:58.270Z,99.90
2018-10-11T04:10:26.924Z,99.90
2018-10-11T04:12:55.764Z,99.90
2018-10-11T04:15:24.798Z,99.90
2018-10-11T04:17:53.565Z,99.90
2018-10-11T04:20:22.174Z,99.90
2018-10-11T04:22:50.685Z,99.90
2018-10-11T04:25:19.288Z,99.90
2018-10-11T04:27:48.158Z,99.90
2018-10-11T04:30:16.698Z,99.90
2018-10-11T04:32:45.708Z,99.90
2018-10-11T04:35:14.236Z,99.90
2018-10-11T04:37:42.879Z,99.90
2018-10-11T04:40:11.429Z,99.90
2018-10-11T04:42:40.992Z,99.90
2018-10-11T04:45:09.741Z,99.90
2018-10-11T04:47:38.386Z,99.90
2018-10-11T04:50:06.864Z,99.90
2018-10-11T04:52:35.417Z,99.90
2018-10-11T04:55:04.220Z,99.90
2018-10-11T04:57:32.723Z,99.90
2018-10-11T05:00:01.484Z,99.90
2018-10-11T05:02:30.119Z,99.90
2018-10-11T05:04:58.669Z,99.90
2018-10-11T05:07:27.531Z,99.90
2018-10-11T05:09:56.057Z,99.90
2018-10-11T05:12:24.841Z,99.90
2018-10-11T05:14:53.855Z,99.90
2018-10-11T05:17:22.396Z,99.90
2018-10-11T05:19:51.140Z,99.90
2018-10-11T05:22:19.727Z,99.90
2018-10-11T05:24:48.614Z,99.90
2018-10-11T05:27:17.277Z,99.90
2018-10-11T05:29:45.937Z,99.90
2018-10-11T05:32:14.913Z,99.90
2018-10-11T05:34:43.499Z,99.90
2018-10-11T05:37:12.139Z,99.90
2018-10-11T05:39:40.633Z,99.90
2018-10-11T05:42:09.171Z,99.90
2018-10-11T05:44:37.767Z,99.90
2018-10-11T05:47:06.786Z,99.90
2018-10-11T05:49:35.289Z,99.90
2018-10-11T05:52:04.064Z,99.90
2018-10-11T05:54:32.613Z,99.90
2018-10-11T05:57:01.150Z,99.90
2018-10-11T05:59:29.860Z,99.90
2018-10-11T06:01:58.397Z,99.90
2018-10-11T06:04:27.332Z,99.90
2018-10-11T06:06:55.908Z,99.90
2018-10-11T06:09:24.768Z,99.90
2018-10-11T06:11:53.484Z,99.90
2018-10-11T06:14:22.033Z,99.90
2018-10-11T06:16:50.849Z,99.90
2018-10-11T06:19:19.694Z,99.90
2018-10-11T06:21:48.313Z,99.90
2018-10-11T06:24:17.051Z,99.90
2018-10-11T06:26:45.864Z,99.90
2018-10-11T06:29:14.371Z,99.90
2018-10-11T06:31:43.253Z,99.90
2018-10-11T06:34:11.853Z,99.90
2018-10-11T06:36:41.400Z,99.90
2018-10-11T06:39:10.785Z,99.90
2018-10-11T06:41:39.378Z,99.90
2018-10-11T06:44:08.712Z,99.90
2018-10-11T06:46:37.655Z,99.90
2018-10-11T06:49:07.245Z,99.90
2018-10-11T06:51:35.783Z,99.90
2018-10-11T06:54:04.273Z,99.90
2018-10-11T06:56:32.828Z,99.90
2018-10-11T06:59:01.420Z,99.90
2018-10-11T07:01:30.314Z,99.90
2018-10-11T07:03:58.864Z,99.90
2018-10-11T07:06:27.743Z,99.90
2018-10-11T07:08:56.469Z,99.90
2018-10-11T07:11:25.237Z,99.90
2018-10-11T07:13:53.837Z,99.90
2018-10-11T07:16:22.466Z,99.90
2018-10-11T07:18:51.598Z,99.90
2018-10-11T07:21:20.492Z,99.90
2018-10-11T07:23:49.095Z,99.90
2018-10-11T07:26:18.012Z,99.90
2018-10-11T07:28:46.652Z,99.90
2018-10-11T07:31:15.443Z,99.90
2018-10-11T07:33:44.287Z,99.90
2018-10-11T07:36:12.879Z,99.90
2018-10-11T07:38:41.557Z,99.90
2018-10-11T07:41:10.415Z,99.90
2018-10-11T07:43:39.103Z,99.90
2018-10-11T07:46:07.951Z,99.90
2018-10-11T07:48:36.794Z,99.90
2018-10-11T07:51:05.665Z,99.90
2018-10-11T07:53:34.287Z,99.90
2018-10-11T07:56:03.195Z,99.90
2018-10-11T07:58:31.985Z,99.90
2018-10-11T08:01:00.559Z,99.90
2018-10-11T08:03:29.554Z,99.90
2018-10-11T08:05:58.394Z,99.90
2018-10-11T08:08:27.119Z,99.90
2018-10-11T08:10:56.284Z,99.90
2018-10-11T08:13:25.290Z,99.90
2018-10-11T08:15:54.182Z,99.90
2018-10-11T08:18:22.825Z,99.90
2018-10-11T08:20:51.629Z,99.90
2018-10-11T08:23:21.146Z,99.90
2018-10-11T08:25:50.311Z,99.90
2018-10-11T08:28:18.602Z,99.90
2018-10-11T08:30:47.576Z,99.90
2018-10-11T08:33:16.211Z,99.90
2018-10-11T08:35:44.675Z,99.90
2018-10-11T08:38:13.552Z,99.90
2018-10-11T08:40:41.926Z,99.90
2018-10-11T08:43:10.516Z,99.90
2018-10-11T08:45:39.755Z,99.90
2018-10-11T08:48:08.786Z,99.90
2018-10-11T08:50:37.421Z,99.90
2018-10-11T08:53:06.659Z,99.90
2018-10-11T08:55:35.479Z,99.90
2018-10-11T08:58:04.203Z,99.90
2018-10-11T09:00:32.966Z,99.90
2018-10-11T09:03:01.932Z,99.90
2018-10-11T09:05:30.560Z,99.90
2018-10-11T09:07:59.790Z,99.90
2018-10-11T09:10:38.109Z,99.90
2018-10-11T09:12:58.084Z,99.90
2018-10-11T09:15:27.109Z,99.90
2018-10-11T09:17:55.870Z,99.90
2018-10-11T09:20:24.663Z,99.90
2018-10-11T09:22:53.488Z,99.90
2018-10-11T09:25:22.099Z,98.30
2018-10-11T09:27:50.976Z,96.80
2018-10-11T09:30:19.773Z,94.60
2018-10-11T09:32:48.879Z,93.10
2018-10-11T09:35:18.155Z,91.20
2018-10-11T09:37:47.002Z,89.30
2018-10-11T09:40:15.755Z,88.40
2018-10-11T09:42:45.034Z,85.90
2018-10-11T09:45:13.710Z,83.80
2018-10-11T09:47:42.423Z,83.90
2018-10-11T09:50:11.197Z,85.60
2018-10-11T09:52:39.915Z,86.00
2018-10-11T09:55:08.736Z,85.10
2018-10-11T09:57:38.481Z,84.10
2018-10-11T10:00:14.627Z,84.30
2018-10-11T10:02:43.321Z,84.40
2018-10-11T10:05:12.153Z,80.90
2018-10-11T10:07:41.023Z,78.90
2018-10-11T10:10:10.067Z,77.80
2018-10-11T10:12:38.837Z,77.60
2018-10-11T10:15:07.727Z,77.10
2018-10-11T10:17:37.194Z,77.00
2018-10-11T10:20:06.441Z,73.50
2018-10-11T10:22:35.101Z,69.70
2018-10-11T10:25:03.751Z,68.40
2018-10-11T10:27:32.487Z,69.80
2018-10-11T10:30:05.333Z,69.40
2018-10-11T10:32:33.999Z,67.50
2018-10-11T10:35:02.612Z,67.70
2018-10-11T10:37:31.495Z,68.10
2018-10-11T10:40:00.295Z,66.90
2018-10-11T10:42:28.813Z,67.00
2018-10-11T10:44:57.429Z,67.70
2018-10-11T10:47:26.108Z,66.30
2018-10-11T10:49:54.901Z,67.80
2018-10-11T10:52:23.465Z,69.00
2018-10-11T10:54:52.328Z,67.90
2018-10-11T10:57:21.509Z,66.30
2018-10-11T10:59:50.664Z,67.00
2018-10-11T11:02:19.400Z,65.00
2018-10-11T11:04:48.228Z,63.00
2018-10-11T11:07:16.908Z,62.30
2018-10-11T11:09:45.511Z,60.30
2018-10-11T11:12:14.397Z,57.70
2018-10-11T11:14:42.972Z,55.90
2018-10-11T11:17:11.716Z,55.50
2018-10-11T11:19:40.337Z,54.30
2018-10-11T11:22:08.950Z,54.50
2018-10-11T11:24:38.282Z,53.60
2018-10-11T11:27:07.005Z,54.30
2018-10-11T11:29:35.764Z,54.70
2018-10-11T11:32:04.530Z,54.30
2018-10-11T11:34:33.133Z,52.10
2018-10-11T11:37:01.829Z,51.90
2018-10-11T11:39:30.601Z,51.10
2018-10-11T11:41:59.443Z,49.10
2018-10-11T11:44:28.232Z,48.70
2018-10-11T11:46:57.316Z,48.20
2018-10-11T11:49:25.928Z,48.60
2018-10-11T11:51:54.823Z,47.10
2018-10-11T11:54:23.518Z,46.80
2018-10-11T11:56:52.933Z,47.20
2018-10-11T11:59:21.770Z,47.70
2018-10-11T12:01:50.822Z,48.40
2018-10-11T12:04:19.774Z,47.10
2018-10-11T12:06:48.645Z,47.80
2018-10-11T12:09:17.499Z,47.40
2018-10-11T12:11:46.684Z,47.10
2018-10-11T12:14:15.685Z,46.00
2018-10-11T12:16:44.433Z,46.40
2018-10-11T12:19:13.154Z,46.10
2018-10-11T12:21:41.747Z,44.80
2018-10-11T12:24:10.563Z,43.70
2018-10-11T12:26:39.280Z,42.90
2018-10-11T12:29:08.533Z,42.70
2018-10-11T12:31:37.108Z,42.40
2018-10-11T12:34:05.887Z,41.70
2018-10-11T12:36:34.749Z,41.40
2018-10-11T12:39:04.731Z,40.10
2018-10-11T12:41:33.298Z,40.20
2018-10-11T12:44:02.260Z,39.60
2018-10-11T12:46:32.521Z,40.60
2018-10-11T12:49:00.013Z,40.50
2018-10-11T12:51:28.921Z,39.20
2018-10-11T12:53:57.496Z,39.90
2018-10-11T12:56:26.441Z,40.70
2018-10-11T12:58:55.210Z,42.00
2018-10-11T13:01:24.258Z,41.00
2018-10-11T13:03:52.733Z,41.40
2018-10-11T13:06:21.940Z,40.60
2018-10-11T13:08:51.069Z,40.30
2018-10-11T13:11:19.990Z,40.20
2018-10-11T13:13:52.019Z,40.70
2018-10-11T13:16:17.570Z,39.30
2018-10-11T13:18:46.523Z,41.30
2018-10-11T13:21:15.428Z,41.80
2018-10-11T13:23:44.399Z,41.20
2018-10-11T13:26:13.337Z,39.50
2018-10-11T13:28:42.284Z,39.30
2018-10-11T13:31:11.163Z,41.10
2018-10-11T13:33:40.152Z,41.40
2018-10-11T13:36:13.003Z,42.00
2018-10-11T13:38:42.145Z,43.20
2018-10-11T13:41:11.360Z,44.80
2018-10-11T13:43:39.853Z,45.60
2018-10-11T13:46:09.173Z,45.30
2018-10-11T13:48:38.247Z,46.70
2018-10-11T13:51:07.326Z,45.60
2018-10-11T13:53:36.646Z,46.10
2018-10-11T13:56:05.580Z,46.20
2018-10-11T13:58:34.399Z,47.80
2018-10-11T14:01:03.177Z,47.90
2018-10-11T14:03:32.010Z,48.80
2018-10-11T14:06:00.981Z,47.60
2018-10-11T14:08:29.823Z,47.70
2018-10-11T14:10:58.498Z,47.30
2018-10-11T14:13:27.386Z,46.40
2018-10-11T14:15:56.557Z,44.60
2018-10-11T14:18:25.299Z,43.60
2018-10-11T14:20:54.628Z,42.60
2018-10-11T14:23:23.646Z,40.30
2018-10-11T14:25:53.006Z,41.00
2018-10-11T14:28:22.127Z,41.30
2018-10-11T14:30:51.216Z,40.70
2018-10-11T14:33:20.512Z,40.20
2018-10-11T14:35:49.728Z,40.20
2018-10-11T14:38:18.685Z,39.70
2018-10-11T14:40:47.712Z,39.20
2018-10-11T14:43:17.157Z,39.80
2018-10-11T14:45:46.429Z,40.80
2018-10-11T14:48:16.391Z,40.90
2018-10-11T14:50:45.532Z,42.10
2018-10-11T14:53:14.560Z,41.20
2018-10-11T14:55:43.402Z,40.90
2018-10-11T14:58:12.018Z,41.40
2018-10-11T15:00:40.828Z,43.80
2018-10-11T15:03:09.752Z,44.20
2018-10-11T15:05:38.724Z,44.90
2018-10-11T15:08:07.599Z,44.60
2018-10-11T15:10:36.258Z,45.00
2018-10-11T15:13:05.180Z,45.60
2018-10-11T15:15:34.296Z,46.70
2018-10-11T15:18:03.110Z,47.80
2018-10-11T15:20:32.076Z,49.40
2018-10-11T15:23:01.189Z,51.10
2018-10-11T15:25:30.173Z,52.20
2018-10-11T15:27:58.966Z,53.20
2018-10-11T15:30:27.941Z,54.90
2018-10-11T15:32:56.765Z,56.90
2018-10-11T15:35:25.776Z,58.50
2018-10-11T15:37:54.681Z,59.80
2018-10-11T15:40:23.931Z,61.80
2018-10-11T15:42:52.973Z,63.00
2018-10-11T15:45:22.085Z,65.10
2018-10-11T15:47:50.685Z,66.50
2018-10-11T15:50:19.454Z,68.40
2018-10-11T15:52:48.346Z,69.80
2018-10-11T15:55:17.173Z,71.50
2018-10-11T15:57:46.124Z,73.10
2018-10-11T16:00:14.716Z,74.00
2018-10-11T16:02:43.648Z,76.00
2018-10-11T16:05:12.604Z,78.30
2018-10-11T16:07:41.232Z,80.80
2018-10-11T16:10:10.164Z,82.50
2018-10-11T16:12:38.790Z,85.60
2018-10-11T16:15:07.409Z,88.50
2018-10-11T16:17:36.535Z,90.80
2018-10-11T16:20:05.293Z,92.00
2018-10-11T16:22:33.930Z,93.00
2018-10-11T16:25:02.641Z,94.00
2018-10-11T16:27:31.914Z,95.70
2018-10-11T16:30:00.579Z,96.60
2018-10-11T16:32:29.478Z,96.80
2018-10-11T16:34:58.472Z,97.10
2018-10-11T16:37:27.408Z,97.80
2018-10-11T16:39:56.303Z,98.20
2018-10-11T16:42:25.393Z,98.60
2018-10-11T16:44:54.293Z,98.90
2018-10-11T16:47:23.109Z,99.60
2018-10-11T16:49:52.062Z,99.80
2018-10-11T16:52:21.103Z,99.90
2018-10-11T16:54:50.066Z,99.90
2018-10-11T16:57:19.380Z,99.90
2018-10-11T16:59:48.456Z,99.90
2018-10-11T17:02:17.082Z,99.90
2018-10-11T17:04:45.974Z,99.90
2018-10-11T17:07:14.914Z,99.90
2018-10-11T17:09:43.755Z,99.90
2018-10-11T17:12:12.576Z,99.90
2018-10-11T17:14:41.557Z,99.90
2018-10-11T17:17:10.399Z,99.90
2018-10-11T17:19:39.012Z,99.90
2018-10-11T17:22:07.979Z,99.90
2018-10-11T17:24:36.704Z,99.90
2018-10-11T17:27:05.474Z,99.90
2018-10-11T17:29:34.546Z,99.90
2018-10-11T17:32:03.451Z,99.90
2018-10-11T17:34:32.473Z,99.90
2018-10-11T17:37:01.107Z,99.90
2018-10-11T17:39:30.373Z,99.90
2018-10-11T17:41:59.444Z,99.90
2018-10-11T17:44:28.374Z,99.90
2018-10-11T17:46:57.499Z,99.90
2018-10-11T17:49:26.813Z,99.90
2018-10-11T17:51:55.744Z,99.90
2018-10-11T17:54:24.720Z,99.90
2018-10-11T17:56:54.034Z,99.90
2018-10-11T17:59:22.974Z,99.90
2018-10-11T18:01:51.983Z,99.90
2018-10-11T18:04:20.764Z,99.90
2018-10-11T18:06:49.658Z,99.90
2018-10-11T18:09:18.816Z,99.90
2018-10-11T18:11:47.763Z,99.90
2018-10-11T18:14:16.688Z,99.90
2018-10-11T18:16:46.243Z,99.90
2018-10-11T18:19:15.320Z,99.90
2018-10-11T18:21:44.426Z,99.90
2018-10-11T18:24:13.605Z,99.90
2018-10-11T18:26:42.368Z,99.90
2018-10-11T18:29:11.353Z,99.90
2018-10-11T18:31:40.274Z,99.90
2018-10-11T18:34:09.318Z,99.90
2018-10-11T18:36:38.291Z,99.90
2018-10-11T18:39:14.216Z,99.90
2018-10-11T18:41:43.360Z,99.90
2018-10-11T18:44:12.801Z,99.90
2018-10-11T18:46:41.755Z,99.90
2018-10-11T18:49:10.899Z,99.90
2018-10-11T18:51:40.031Z,99.90
2018-10-11T18:54:09.241Z,99.90
2018-10-11T18:56:38.247Z,99.90
2018-10-11T18:59:07.217Z,99.90
2018-10-11T19:01:36.111Z,99.90
2018-10-11T19:04:05.185Z,99.90
2018-10-11T19:06:33.982Z,99.90
2018-10-11T19:09:03.063Z,99.90
2018-10-11T19:11:31.850Z,99.90
2018-10-11T19:14:00.795Z,99.90
2018-10-11T19:16:30.212Z,99.90
2018-10-11T19:18:59.394Z,99.90
2018-10-11T19:21:28.925Z,99.90
2018-10-11T19:23:57.906Z,99.90
2018-10-11T19:26:27.258Z,99.90
2018-10-11T19:28:56.271Z,99.90
2018-10-11T19:31:25.511Z,99.90
2018-10-11T19:33:54.575Z,99.90
2018-10-11T19:36:23.183Z,99.90
2018-10-11T19:38:52.220Z,99.90
2018-10-11T19:41:21.015Z,99.90
2018-10-11T19:43:50.123Z,99.90
2018-10-11T19:46:18.967Z,99.90
2018-10-11T19:48:48.050Z,99.90
2018-10-11T19:51:17.191Z,99.90
2018-10-11T19:53:46.039Z,99.90
2018-10-11T19:56:14.967Z,99.90
2018-10-11T19:58:43.961Z,99.90
2018-10-11T20:01:12.996Z,99.90
2018-10-11T20:03:42.150Z,99.90
2018-10-11T20:06:11.366Z,99.90
2018-10-11T20:08:40.223Z,99.90
2018-10-11T20:11:08.937Z,99.90
2018-10-11T20:13:37.457Z,99.90
2018-10-11T20:16:06.555Z,99.90
2018-10-11T20:18:35.603Z,99.90
2018-10-11T20:21:04.273Z,99.90
2018-10-11T20:23:33.186Z,99.90
2018-10-11T20:26:02.245Z,99.90
2018-10-11T20:28:31.253Z,99.90
2018-10-11T20:31:00.050Z,99.90
2018-10-11T20:33:28.809Z,99.90
2018-10-11T20:35:57.479Z,99.90
2018-10-11T20:38:26.903Z,99.90
2018-10-11T20:40:55.955Z,99.90
2018-10-11T20:43:24.747Z,99.90
2018-10-11T20:45:53.568Z,99.90
2018-10-11T20:48:22.237Z,99.90
2018-10-11T20:50:51.080Z,99.90
2018-10-11T20:53:20.137Z,99.90
2018-10-11T20:55:48.952Z,99.90
2018-10-11T20:58:17.740Z,99.90
2018-10-11T21:00:46.622Z,99.90
2018-10-11T21:03:15.612Z,99.90
2018-10-11T21:05:44.180Z,99.90
2018-10-11T21:08:13.206Z,99.90
2018-10-11T21:10:42.169Z,99.90
2018-10-11T21:13:10.824Z,99.90
2018-10-11T21:15:39.381Z,99.90
2018-10-11T21:18:08.235Z,99.90
2018-10-11T21:20:37.065Z,99.90
2018-10-11T21:23:05.663Z,99.90
2018-10-11T21:25:34.385Z,99.90
2018-10-11T21:28:03.024Z,99.90
2018-10-11T21:30:31.801Z,99.90
2018-10-11T21:33:00.334Z,99.90
2018-10-11T21:35:28.880Z,99.90
2018-10-11T21:37:57.522Z,99.90
2018-10-11T21:40:26.330Z,99.90
2018-10-11T21:42:54.897Z,99.90
2018-10-11T21:45:23.808Z,99.90
2018-10-11T21:47:52.561Z,99.90
2018-10-11T21:50:21.152Z,99.90
2018-10-11T21:52:50.094Z,99.90
2018-10-11T21:55:18.850Z,99.90
2018-10-11T21:57:48.061Z,99.90
2018-10-11T22:00:16.663Z,99.90
2018-10-11T22:02:45.574Z,99.90
2018-10-11T22:05:14.439Z,99.90
2018-10-11T22:07:43.049Z,99.90
2018-10-11T22:10:12.146Z,99.90
2018-10-11T22:12:41.018Z,99.90
2018-10-11T22:15:10.082Z,99.90
2018-10-11T22:17:38.493Z,99.90
2018-10-11T22:20:07.041Z,99.90
2018-10-11T22:22:35.536Z,99.90
2018-10-11T22:25:04.269Z,99.90
2018-10-11T22:27:32.792Z,99.90
2018-10-11T22:30:01.413Z,99.90
2018-10-11T22:32:29.938Z,99.90
2018-10-11T22:34:58.434Z,99.90
2018-10-11T22:37:26.971Z,99.90
2018-10-11T22:39:55.672Z,99.90
2018-10-11T22:42:24.438Z,99.90
2018-10-11T22:44:53.377Z,99.90
2018-10-11T22:47:22.151Z,99.90
2018-10-11T22:49:50.763Z,99.90
2018-10-11T22:52:19.316Z,99.90
2018-10-11T22:54:48.085Z,99.90
2018-10-11T22:57:16.642Z,99.90
2018-10-11T22:59:45.171Z,99.90
2018-10-11T23:02:13.743Z,99.90
2018-10-11T23:04:42.278Z,99.90
2018-10-11T23:07:11.367Z,99.90
2018-10-11T23:09:40.378Z,99.90
2018-10-11T23:12:09.056Z,99.90
2018-10-11T23:14:37.878Z,99.90
2018-10-11T23:17:06.834Z,99.90
2018-10-11T23:19:35.361Z,99.90
2018-10-11T23:22:04.044Z,99.90
2018-10-11T23:24:32.579Z,99.90
2018-10-11T23:27:01.287Z,99.90
2018-10-11T23:29:30.102Z,99.90
2018-10-11T23:31:58.790Z,99.90
2018-10-11T23:34:27.556Z,99.90
2018-10-11T23:36:56.149Z,99.90
2018-10-11T23:39:24.907Z,99.90
2018-10-11T23:41:53.465Z,99.90
2018-10-11T23:44:22.026Z,99.90
2018-10-11T23:46:50.589Z,99.90
2018-10-11T23:49:19.156Z,99.90
2018-10-11T23:51:47.800Z,99.90
2018-10-11T23:54:16.305Z,99.90
2018-10-11T23:56:44.844Z,99.90
2018-10-11T23:59:13.625Z,99.90
